Time;durP1;ratioP1;P1;durP2;ratioP2;P2;SDS_P1;SDS_P2;PMS_P1;PMS_P2;Temp;Humidity;BMP_temperature;BMP_pressure;BME280_temperature;BME280_humidity;BME280_pressure;Samples;Min_cycle;Max_cycle;Signal;HPM_P1;HPM_P2
2021/05/31 00:02:09;;;;;;;1.55;1.00;;;;;;;;;;6997137;28;20049;-82
2021/05/31 00:05:31;;;;;;;1.40;1.00;;;;;;;;;;7001929;28;20042;-82
2021/05/31 00:08:51;;;;;;;1.98;1.15;;;;;;;;;;7020721;28;20049;-82
2021/05/31 00:12:15;;;;;;;0.80;0.80;;;;;;;;;;7025894;28;20186;-82
2021/05/31 00:15:35;;;;;;;2.35;1.00;;;;;;;;;;7012946;28;20098;-83
2021/05/31 00:18:56;;;;;;;0.93;0.70;;;;;;;;;;7019218;28;20119;-82
2021/05/31 00:22:19;;;;;;;5.72;1.20;;;;;;;;;;7006042;28;20052;-82
2021/05/31 00:25:40;;;;;;;4.47;0.90;;;;;;;;;;7024916;28;20052;-82
2021/05/31 00:29:00;;;;;;;3.70;0.88;;;;;;;;;;7023019;28;20134;-82
2021/05/31 00:32:21;;;;;;;8.95;0.95;;;;;;;;;;7073600;22;20066;-80
2021/05/31 00:35:41;;;;;;;2.38;0.93;;;;;;;;;;7080951;28;20055;-81
2021/05/31 00:39:02;;;;;;;2.38;1.08;;;;;;;;;;7078888;27;20156;-81
2021/05/31 00:42:22;;;;;;;2.17;1.08;;;;;;;;;;7060624;28;20043;-81
2021/05/31 00:45:43;;;;;;;0.90;0.90;;;;;;;;;;7080013;27;20131;-81
2021/05/31 00:49:03;;;;;;;1.10;0.88;;;;;;;;;;7060113;28;20048;-81
2021/05/31 00:52:24;;;;;;;1.27;1.00;;;;;;;;;;7067977;28;20059;-81
2021/05/31 00:55:45;;;;;;;3.35;1.02;;;;;;;;;;7068434;28;20389;-81
2021/05/31 00:59:05;;;;;;;1.27;0.70;;;;;;;;;;7062776;28;20043;-81
2021/05/31 01:02:27;;;;;;;1.60;0.93;;;;;;;;;;7070186;28;20469;-81
2021/05/31 01:05:48;;;;;;;1.10;1.00;;;;;;;;;;7080611;27;20071;-82
2021/05/31 01:09:12;;;;;;;1.13;1.02;;;;;;;;;;7080012;27;20050;-81
2021/05/31 01:12:36;;;;;;;0.90;0.90;;;;;;;;;;7064728;28;20055;-82
2021/05/31 01:16:03;;;;;;;0.90;0.90;;;;;;;;;;7074442;27;20069;-81
2021/05/31 01:19:49;;;;;;;0.95;0.77;;;;;;;;;;7076728;28;20122;-81
2021/05/31 01:23:11;;;;;;;0.70;0.70;;;;;;;;;;7065274;28;20043;-81
2021/05/31 01:26:44;;;;;;;0.95;0.82;;;;;;;;;;7079472;27;20042;-81
2021/05/31 01:30:08;;;;;;;0.90;0.90;;;;;;;;;;7061130;28;20039;-81
2021/05/31 01:33:31;;;;;;;1.23;0.80;;;;;;;;;;7056771;28;20075;-81
2021/05/31 01:37:00;;;;;;;1.08;0.82;;;;;;;;;;7067750;28;20051;-81
2021/05/31 01:40:22;;;;;;;;;;;;;;;;;;7060008;28;20075;-81
2021/05/31 01:43:44;;;;;;;1.20;0.85;;;;;;;;;;7078125;27;19922;-81
2021/05/31 01:47:04;;;;;;;0.90;0.90;;;;;;;;;;7070317;28;20139;-81
2021/05/31 01:50:27;;;;;;;1.77;0.90;;;;;;;;;;7079877;27;20047;-81
2021/05/31 01:53:49;;;;;;;0.80;0.80;;;;;;;;;;7068125;28;20096;-81
2021/05/31 01:57:10;;;;;;;1.27;0.88;;;;;;;;;;7067656;28;20038;-81
2021/05/31 02:00:31;;;;;;;0.80;0.80;;;;;;;;;;7076621;28;20041;-81
2021/05/31 02:03:51;;;;;;;0.82;0.82;;;;;;;;;;7076736;28;20050;-81
2021/05/31 02:07:12;;;;;;;0.88;0.80;;;;;;;;;;7073660;28;20036;-81
2021/05/31 02:10:32;;;;;;;1.30;0.80;;;;;;;;;;7060561;27;20514;-82
2021/05/31 02:13:55;;;;;;;1.30;0.80;;;;;;;;;;7051361;28;20436;-81
2021/05/31 02:17:34;;;;;;;1.35;0.90;;;;;;;;;;7070503;28;20040;-81
2021/05/31 02:21:09;;;;;;;0.98;0.98;;;;;;;;;;7078682;27;20047;-81
2021/05/31 02:24:34;;;;;;;1.27;0.80;;;;;;;;;;7068146;28;20067;-81
2021/05/31 02:27:56;;;;;;;0.95;0.93;;;;;;;;;;7067947;28;20070;-81
2021/05/31 02:31:17;;;;;;;1.80;0.80;;;;;;;;;;7063265;28;20060;-81
2021/05/31 02:34:37;;;;;;;0.80;0.80;;;;;;;;;;7057584;28;20058;-81
2021/05/31 02:37:58;;;;;;;1.10;0.82;;;;;;;;;;7063152;27;20064;-81
2021/05/31 02:41:19;;;;;;;0.95;0.88;;;;;;;;;;7067325;27;20047;-82
2021/05/31 02:44:39;;;;;;;0.73;0.73;;;;;;;;;;7073830;28;20572;-82
2021/05/31 02:48:00;;;;;;;0.80;0.80;;;;;;;;;;7063600;27;20074;-80
2021/05/31 02:51:21;;;;;;;3.45;0.90;;;;;;;;;;7054727;28;20083;-82
2021/05/31 02:54:41;;;;;;;2.05;0.88;;;;;;;;;;7082158;27;20059;-81
2021/05/31 02:58:02;;;;;;;2.58;0.80;;;;;;;;;;7083132;27;20043;-81
2021/05/31 03:01:23;;;;;;;0.80;0.80;;;;;;;;;;7077807;27;20442;-82
2021/05/31 03:04:43;;;;;;;0.60;0.60;;;;;;;;;;7066500;28;20561;-81
2021/05/31 03:08:04;;;;;;;1.00;0.90;;;;;;;;;;7069905;28;20051;-81
2021/05/31 03:11:24;;;;;;;0.70;0.70;;;;;;;;;;7080723;28;20078;-81
2021/05/31 03:14:45;;;;;;;0.80;0.80;;;;;;;;;;7083872;27;20499;-81
2021/05/31 03:18:07;;;;;;;0.80;0.80;;;;;;;;;;7083003;28;20492;-81
2021/05/31 03:21:27;;;;;;;1.20;0.80;;;;;;;;;;7082530;27;20062;-81
2021/05/31 03:24:47;;;;;;;0.95;0.80;;;;;;;;;;7066176;28;20051;-81
2021/05/31 03:28:09;;;;;;;0.88;0.88;;;;;;;;;;7082953;27;20137;-82
2021/05/31 03:31:29;;;;;;;0.80;0.80;;;;;;;;;;7082413;27;20392;-81
2021/05/31 03:34:50;;;;;;;1.10;1.00;;;;;;;;;;7084238;27;20503;-81
2021/05/31 03:38:10;;;;;;;1.00;0.90;;;;;;;;;;7072669;28;20067;-81
2021/05/31 03:41:30;;;;;;;0.80;0.77;;;;;;;;;;7075520;28;20078;-81
2021/05/31 03:44:51;;;;;;;0.85;0.80;;;;;;;;;;7082332;28;20580;-81
2021/05/31 03:48:12;;;;;;;2.03;1.08;;;;;;;;;;7080314;28;20047;-81
2021/05/31 03:51:33;;;;;;;0.70;0.70;;;;;;;;;;7082031;27;20419;-81
2021/05/31 03:54:53;;;;;;;2.58;0.90;;;;;;;;;;7082316;27;20588;-82
2021/05/31 03:58:14;;;;;;;0.70;0.70;;;;;;;;;;7066669;28;20055;-81
2021/05/31 04:01:34;;;;;;;1.20;0.90;;;;;;;;;;7053170;28;20083;-81
2021/05/31 04:04:56;;;;;;;0.98;0.80;;;;;;;;;;7081838;27;20043;-81
2021/05/31 04:11:56;;;;;;;0.80;0.80;;;;;;;;;;7069206;28;20046;-81
2021/05/31 04:15:16;;;;;;;2.03;1.02;;;;;;;;;;7081456;27;20069;-80
2021/05/31 04:18:37;;;;;;;1.13;0.75;;;;;;;;;;7069306;27;20137;-81
2021/05/31 04:21:57;;;;;;;0.88;0.80;;;;;;;;;;7070106;27;20470;-81
2021/05/31 04:25:18;;;;;;;0.85;0.85;;;;;;;;;;7076244;28;20055;-80
2021/05/31 04:28:38;;;;;;;0.80;0.80;;;;;;;;;;7077361;28;20119;-81
2021/05/31 04:31:58;;;;;;;0.73;0.73;;;;;;;;;;7069268;27;20571;-81
2021/05/31 04:35:19;;;;;;;1.08;0.80;;;;;;;;;;7080355;28;20043;-81
2021/05/31 04:38:39;;;;;;;0.70;0.70;;;;;;;;;;7078499;27;20039;-81
2021/05/31 04:42:00;;;;;;;1.73;1.10;;;;;;;;;;7070401;28;20123;-81
2021/05/31 04:45:20;;;;;;;0.70;0.70;;;;;;;;;;7080974;27;20067;-81
2021/05/31 04:48:41;;;;;;;0.90;0.90;;;;;;;;;;7073757;27;20046;-81
2021/05/31 04:52:02;;;;;;;0.65;0.65;;;;;;;;;;7066073;28;20545;-81
2021/05/31 04:55:22;;;;;;;0.90;0.88;;;;;;;;;;7080743;27;20100;-81
2021/05/31 04:58:43;;;;;;;0.70;0.70;;;;;;;;;;7079050;28;20134;-81
2021/05/31 05:02:03;;;;;;;1.13;1.00;;;;;;;;;;7078737;28;20134;-81
2021/05/31 05:05:25;;;;;;;0.70;0.70;;;;;;;;;;7080293;27;20047;-81
2021/05/31 05:08:45;;;;;;;2.70;0.80;;;;;;;;;;7078744;28;20047;-81
2021/05/31 05:12:06;;;;;;;1.33;0.88;;;;;;;;;;7080330;27;20404;-81
2021/05/31 05:15:27;;;;;;;0.90;0.90;;;;;;;;;;7079313;27;20039;-81
2021/05/31 05:18:49;;;;;;;0.82;0.80;;;;;;;;;;7049707;28;20071;-81
2021/05/31 05:22:09;;;;;;;0.80;0.80;;;;;;;;;;7048225;28;20035;-80
2021/05/31 05:25:30;;;;;;;1.08;0.77;;;;;;;;;;7080303;28;20131;-80
2021/05/31 05:28:50;;;;;;;1.23;0.85;;;;;;;;;;7078931;27;20051;-81
2021/05/31 05:32:12;;;;;;;0.80;0.80;;;;;;;;;;7068382;28;20078;-78
2021/05/31 05:42:33;;;;;;;2.10;2.00;;;;;;;;;;7074468;28;20051;-81
2021/05/31 05:49:15;;;;;;;6.60;6.00;;;;;;;;;;7072059;27;20051;-78
2021/05/31 05:52:36;;;;;;;5.20;4.90;;;;;;;;;;7072853;28;20300;-79
2021/05/31 05:55:56;;;;;;;1.20;1.10;;;;;;;;;;7064032;28;20061;-81
2021/05/31 05:59:17;;;;;;;1.13;1.10;;;;;;;;;;7078201;27;20043;-79
2021/05/31 06:02:38;;;;;;;1.98;1.40;;;;;;;;;;7050570;28;20055;-79
2021/05/31 06:06:01;;;;;;;1.30;1.20;;;;;;;;;;7065427;28;20130;-81
2021/05/31 06:09:22;;;;;;;1.42;1.13;;;;;;;;;;7078519;27;20480;-81
2021/05/31 06:12:46;;;;;;;1.20;1.10;;;;;;;;;;7072506;27;20054;-80
2021/05/31 06:16:10;;;;;;;2.20;1.15;;;;;;;;;;7070764;28;20055;-79
2021/05/31 06:19:31;;;;;;;1.65;1.30;;;;;;;;;;7077796;27;20500;-79
2021/05/31 06:22:52;;;;;;;1.30;1.20;;;;;;;;;;7077277;28;20051;-79
2021/05/31 06:26:13;;;;;;;1.65;1.20;;;;;;;;;;7064293;28;20109;-79
2021/05/31 06:29:33;;;;;;;3.28;1.50;;;;;;;;;;7073096;27;20055;-81
2021/05/31 06:32:53;;;;;;;1.77;1.40;;;;;;;;;;7059495;28;20086;-80
2021/05/31 06:36:14;;;;;;;4.82;1.30;;;;;;;;;;7061263;27;20513;-78
2021/05/31 06:39:35;;;;;;;1.50;1.38;;;;;;;;;;7077210;27;20055;-80
2021/05/31 06:42:58;;;;;;;3.92;1.50;;;;;;;;;;7076627;27;20047;-78
2021/05/31 06:46:19;;;;;;;1.65;1.42;;;;;;;;;;7066429;28;20519;-79
2021/05/31 06:49:40;;;;;;;1.40;1.30;;;;;;;;;;7077032;27;20066;-80
2021/05/31 06:53:01;;;;;;;1.23;1.10;;;;;;;;;;7075511;27;20054;-81
2021/05/31 06:56:23;;;;;;;3.72;1.20;;;;;;;;;;7063892;27;20058;-80
2021/05/31 06:59:44;;;;;;;2.65;1.40;;;;;;;;;;7069098;28;20055;-81
2021/05/31 07:03:05;;;;;;;1.13;1.10;;;;;;;;;;7067123;28;20133;-81
2021/05/31 07:06:25;;;;;;;2.88;1.50;;;;;;;;;;7071535;28;20058;-80
2021/05/31 07:09:47;;;;;;;2.60;1.20;;;;;;;;;;7065967;28;20039;-80
2021/05/31 07:13:07;;;;;;;6.22;1.30;;;;;;;;;;7062161;28;20055;-79
2021/05/31 07:16:29;;;;;;;4.35;1.50;;;;;;;;;;7077548;27;20062;-80
2021/05/31 07:19:49;;;;;;;1.23;1.15;;;;;;;;;;7069380;28;20039;-79
2021/05/31 07:23:10;;;;;;;1.98;1.40;;;;;;;;;;7076525;28;20176;-78
2021/05/31 07:26:30;;;;;;;1.60;1.35;;;;;;;;;;7077943;27;20126;-79
2021/05/31 07:29:51;;;;;;;2.75;1.60;;;;;;;;;;7077396;27;20466;-80
2021/05/31 07:33:13;;;;;;;1.98;1.27;;;;;;;;;;7068258;28;20091;-80
2021/05/31 07:36:33;;;;;;;1.40;1.30;;;;;;;;;;7069257;28;20043;-80
2021/05/31 07:39:54;;;;;;;2.80;1.50;;;;;;;;;;7073609;27;20066;-80
2021/05/31 07:43:14;;;;;;;8.70;1.17;;;;;;;;;;7082508;27;20043;-80
2021/05/31 07:46:35;;;;;;;1.88;1.02;;;;;;;;;;7077043;27;20040;-78
2021/05/31 07:49:55;;;;;;;0.90;0.90;;;;;;;;;;7077328;27;20385;-78
2021/05/31 07:53:20;;;;;;;4.35;0.90;;;;;;;;;;7075661;28;20043;-79
2021/05/31 07:56:40;;;;;;;3.17;1.27;;;;;;;;;;7072926;28;20074;-78
2021/05/31 08:00:03;;;;;;;2.05;1.00;;;;;;;;;;7076651;27;20077;-78
2021/05/31 08:03:23;;;;;;;2.05;1.20;;;;;;;;;;7080786;27;20042;-78
2021/05/31 08:06:44;;;;;;;1.77;0.90;;;;;;;;;;7068705;27;20465;-79
2021/05/31 08:10:05;;;;;;;2.03;1.10;;;;;;;;;;7076034;27;20047;-79
2021/05/31 08:13:26;;;;;;;3.08;1.00;;;;;;;;;;7055870;28;20130;-80
2021/05/31 08:16:47;;;;;;;3.72;1.20;;;;;;;;;;7065169;28;20070;-80
2021/05/31 08:20:08;;;;;;;1.40;1.00;;;;;;;;;;7069006;27;20069;-80
2021/05/31 08:23:29;;;;;;;3.38;1.13;;;;;;;;;;7076265;27;20039;-79
2021/05/31 08:26:50;;;;;;;3.42;1.27;;;;;;;;;;7059047;28;20043;-78
2021/05/31 08:30:11;;;;;;;2.03;0.93;;;;;;;;;;7081715;27;20408;-80
2021/05/31 08:33:31;;;;;;;4.30;0.93;;;;;;;;;;7063206;28;20074;-79
2021/05/31 08:36:52;;;;;;;3.03;1.40;;;;;;;;;;7069518;27;20039;-79
2021/05/31 08:40:13;;;;;;;0.95;0.90;;;;;;;;;;7070260;28;20062;-79
2021/05/31 08:43:33;;;;;;;2.15;1.20;;;;;;;;;;7080071;27;20058;-81
2021/05/31 08:46:54;;;;;;;2.40;1.13;;;;;;;;;;7078896;27;20047;-80
2021/05/31 08:50:20;;;;;;;2.17;0.98;;;;;;;;;;7068637;27;20035;-79
2021/05/31 08:53:43;;;;;;;1.95;1.00;;;;;;;;;;7060258;28;20096;-78
2021/05/31 08:57:03;;;;;;;3.00;1.20;;;;;;;;;;7080419;27;20039;-79
2021/05/31 09:00:27;;;;;;;1.77;1.13;;;;;;;;;;7073623;27;20405;-79
2021/05/31 09:03:47;;;;;;;3.17;1.45;;;;;;;;;;7064982;28;20071;-80
2021/05/31 09:07:08;;;;;;;7.38;1.23;;;;;;;;;;7055068;28;20445;-80
2021/05/31 09:10:33;;;;;;;3.90;1.27;;;;;;;;;;7080591;27;20100;-78
2021/05/31 09:13:55;;;;;;;1.58;1.10;;;;;;;;;;7079618;27;20054;-80
2021/05/31 09:17:24;;;;;;;5.60;1.25;;;;;;;;;;7064403;27;20047;-79
2021/05/31 09:20:44;;;;;;;2.17;1.35;;;;;;;;;;7064755;28;20066;-79
2021/05/31 09:24:13;;;;;;;1.48;1.10;;;;;;;;;;7078845;27;20074;-80
2021/05/31 09:27:34;;;;;;;1.10;0.93;;;;;;;;;;7062639;28;20051;-79
2021/05/31 09:30:54;;;;;;;1.98;1.20;;;;;;;;;;7089581;27;20134;-79
2021/05/31 09:34:15;;;;;;;2.85;1.08;;;;;;;;;;7063409;28;20147;-79
2021/05/31 09:37:54;;;;;;;1.10;1.00;;;;;;;;;;7064614;28;20550;-80
2021/05/31 09:41:32;;;;;;;3.40;0.90;;;;;;;;;;7052093;28;20048;-80
2021/05/31 09:45:19;;;;;;;2.78;1.27;;;;;;;;;;7078492;27;20467;-81
2021/05/31 09:48:39;;;;;;;2.92;1.10;;;;;;;;;;7076691;27;20043;-81
2021/05/31 09:52:06;;;;;;;2.42;1.40;;;;;;;;;;7069201;28;20454;-81
2021/05/31 09:55:31;;;;;;;1.83;1.15;;;;;;;;;;7055729;28;20122;-80
2021/05/31 09:59:03;;;;;;;1.95;1.25;;;;;;;;;;7064137;28;20066;-81
2021/05/31 10:06:23;;;;;;;1.20;1.10;;;;;;;;;;7016971;28;20134;-81
2021/05/31 10:09:43;;;;;;;3.83;1.60;;;;;;;;;;7060314;28;20498;-82
2021/05/31 10:13:05;;;;;;;7.50;1.70;;;;;;;;;;7077266;28;20051;-83
2021/05/31 10:16:26;;;;;;;6.00;2.42;;;;;;;;;;7066587;27;20070;-81
2021/05/31 10:19:47;;;;;;;3.42;1.83;;;;;;;;;;7038045;28;20128;-82
2021/05/31 10:23:09;;;;;;;2.20;1.75;;;;;;;;;;7070522;28;20512;-81
2021/05/31 10:26:32;;;;;;;1.85;1.23;;;;;;;;;;7064949;28;20055;-81
2021/05/31 10:29:53;;;;;;;1.40;1.30;;;;;;;;;;7061933;28;20043;-81
2021/05/31 10:33:21;;;;;;;4.88;1.40;;;;;;;;;;7056084;28;20062;-82
2021/05/31 10:36:43;;;;;;;2.25;1.15;;;;;;;;;;7062028;28;20413;-82
2021/05/31 10:40:04;;;;;;;1.52;1.30;;;;;;;;;;7060685;28;20570;-81
2021/05/31 10:43:25;;;;;;;1.38;1.00;;;;;;;;;;7072724;28;20122;-79
2021/05/31 10:46:46;;;;;;;1.30;1.20;;;;;;;;;;7075017;27;20035;-79
2021/05/31 10:50:14;;;;;;;2.53;1.35;;;;;;;;;;7073488;28;20128;-80
2021/05/31 10:53:37;;;;;;;1.40;1.30;;;;;;;;;;7074040;28;21002;-79
2021/05/31 10:57:09;;;;;;;1.75;1.15;;;;;;;;;;7073484;28;20092;-79
2021/05/31 11:00:31;;;;;;;2.22;1.40;;;;;;;;;;7076575;27;20047;-79
2021/05/31 11:04:01;;;;;;;1.88;1.17;;;;;;;;;;7075678;27;20564;-79
2021/05/31 11:07:26;;;;;;;1.48;1.20;;;;;;;;;;7058461;28;20076;-80
2021/05/31 11:10:57;;;;;;;1.50;1.30;;;;;;;;;;7077377;27;20078;-80
2021/05/31 11:14:31;;;;;;;2.10;1.02;;;;;;;;;;7076409;27;20046;-79
2021/05/31 11:17:53;;;;;;;1.27;1.17;;;;;;;;;;7073927;28;20050;-80
2021/05/31 11:21:24;;;;;;;1.83;1.17;;;;;;;;;;7081591;27;20054;-80
2021/05/31 11:25:11;;;;;;;3.42;1.15;;;;;;;;;;7060168;27;20058;-81
2021/05/31 11:28:31;;;;;;;1.42;1.20;;;;;;;;;;7064873;28;20134;-77
2021/05/31 11:31:52;;;;;;;1.27;1.10;;;;;;;;;;7078012;28;20062;-79
2021/05/31 11:35:15;;;;;;;19.23;2.00;;;;;;;;;;7082557;27;20078;-78
2021/05/31 11:38:40;;;;;;;3.67;1.20;;;;;;;;;;7082787;27;20055;-78
2021/05/31 11:42:00;;;;;;;5.53;1.40;;;;;;;;;;7065447;28;20039;-78
2021/05/31 11:45:23;;;;;;;4.38;1.92;;;;;;;;;;7070732;27;20084;-78
2021/05/31 11:48:43;;;;;;;2.08;1.30;;;;;;;;;;7079736;28;20039;-78
2021/05/31 11:52:10;;;;;;;2.35;1.60;;;;;;;;;;7081690;27;20136;-78
2021/05/31 11:55:31;;;;;;;7.97;1.70;;;;;;;;;;7081711;27;20035;-78
2021/05/31 11:58:52;;;;;;;8.13;1.33;;;;;;;;;;7065797;27;20043;-78
2021/05/31 12:02:14;;;;;;;2.88;1.38;;;;;;;;;;7081023;27;20047;-78
2021/05/31 12:05:36;;;;;;;2.10;1.17;;;;;;;;;;7081012;27;20488;-78
2021/05/31 12:08:56;;;;;;;7.07;1.30;;;;;;;;;;7081501;27;20066;-78
2021/05/31 12:12:19;;;;;;;1.38;1.27;;;;;;;;;;7081192;27;20054;-78
2021/05/31 12:15:40;;;;;;;5.88;1.30;;;;;;;;;;7081605;27;20064;-78
2021/05/31 12:19:01;;;;;;;2.25;1.40;;;;;;;;;;7080809;27;20523;-78
2021/05/31 12:22:24;;;;;;;3.10;1.70;;;;;;;;;;7081261;27;20054;-79
2021/05/31 12:25:45;;;;;;;1.70;1.27;;;;;;;;;;7079460;27;20055;-79
2021/05/31 12:29:12;;;;;;;2.03;1.40;;;;;;;;;;7080460;27;20083;-79
2021/05/31 12:32:33;;;;;;;1.30;1.20;;;;;;;;;;7115130;22;20063;-76
2021/05/31 12:35:54;;;;;;;2.63;1.45;;;;;;;;;;7052473;28;20051;-75
2021/05/31 12:39:14;;;;;;;2.60;1.42;;;;;;;;;;7045308;28;20032;-75
2021/05/31 12:42:36;;;;;;;2.05;1.35;;;;;;;;;;7051990;28;20161;-75
2021/05/31 12:45:56;;;;;;;1.83;1.40;;;;;;;;;;7040073;28;20039;-76
2021/05/31 12:49:18;;;;;;;2.35;1.40;;;;;;;;;;7052973;28;20122;-75
2021/05/31 12:52:44;;;;;;;2.15;1.23;;;;;;;;;;7052143;28;20043;-75
2021/05/31 12:56:04;;;;;;;3.38;1.42;;;;;;;;;;7038569;28;20397;-75
2021/05/31 12:59:25;;;;;;;3.72;1.30;;;;;;;;;;7037332;28;20544;-75
2021/05/31 13:02:54;;;;;;;4.00;1.40;;;;;;;;;;7050369;28;20060;-75
2021/05/31 13:06:15;;;;;;;1.60;1.33;;;;;;;;;;7049921;28;20205;-75
2021/05/31 13:09:35;;;;;;;1.40;1.20;;;;;;;;;;7052084;28;20048;-75
2021/05/31 13:13:00;;;;;;;6.10;1.50;;;;;;;;;;7051845;28;20134;-75
2021/05/31 13:16:28;;;;;;;2.55;1.25;;;;;;;;;;7051801;28;20064;-75
2021/05/31 13:19:48;;;;;;;1.77;1.40;;;;;;;;;;7050260;28;20393;-75
2021/05/31 13:23:13;;;;;;;2.05;1.23;;;;;;;;;;7049829;28;20520;-75
2021/05/31 13:26:35;;;;;;;1.88;1.20;;;;;;;;;;7050376;28;20197;-75
2021/05/31 13:30:07;;;;;;;1.52;1.20;;;;;;;;;;7047960;28;20440;-75
2021/05/31 13:33:28;;;;;;;2.40;1.40;;;;;;;;;;7049054;28;20081;-76
2021/05/31 13:36:48;;;;;;;1.65;1.30;;;;;;;;;;7044203;28;20042;-75
2021/05/31 13:40:09;;;;;;;1.65;1.08;;;;;;;;;;7042802;28;20576;-76
2021/05/31 13:43:32;;;;;;;1.35;1.25;;;;;;;;;;7034673;28;20055;-75
2021/05/31 13:46:52;;;;;;;1.42;1.30;;;;;;;;;;7048083;28;20397;-76
2021/05/31 13:50:24;;;;;;;1.38;1.25;;;;;;;;;;7044493;28;20485;-75
2021/05/31 13:53:44;;;;;;;2.85;1.83;;;;;;;;;;7050564;28;20047;-75
2021/05/31 13:57:05;;;;;;;3.85;1.45;;;;;;;;;;7048478;28;20444;-74
2021/05/31 14:00:27;;;;;;;1.67;1.30;;;;;;;;;;7036104;28;20505;-75
2021/05/31 14:03:48;;;;;;;1.30;1.20;;;;;;;;;;7042537;28;20059;-75
2021/05/31 14:07:08;;;;;;;3.22;1.50;;;;;;;;;;7048675;28;20130;-76
2021/05/31 14:10:29;;;;;;;2.55;1.30;;;;;;;;;;7048866;28;20464;-75
2021/05/31 14:13:49;;;;;;;1.40;1.30;;;;;;;;;;7049719;28;20051;-75
2021/05/31 14:17:12;;;;;;;1.83;1.17;;;;;;;;;;7050658;28;20122;-75
2021/05/31 14:20:32;;;;;;;1.30;1.20;;;;;;;;;;7047159;28;20104;-75
2021/05/31 14:23:53;;;;;;;4.75;1.42;;;;;;;;;;7046639;28;20051;-75
2021/05/31 14:27:15;;;;;;;1.25;1.15;;;;;;;;;;7048701;28;20044;-75
2021/05/31 14:30:36;;;;;;;1.45;1.23;;;;;;;;;;7034303;28;20044;-75
2021/05/31 14:33:56;;;;;;;2.00;1.20;;;;;;;;;;7030658;28;20100;-74
2021/05/31 14:37:17;;;;;;;1.52;1.30;;;;;;;;;;7034108;28;20458;-75
2021/05/31 14:40:37;;;;;;;1.55;1.10;;;;;;;;;;7049063;28;20040;-75
2021/05/31 14:43:58;;;;;;;1.58;1.15;;;;;;;;;;7035737;28;20122;-76
2021/05/31 14:47:19;;;;;;;1.98;1.50;;;;;;;;;;7042943;28;20044;-75
2021/05/31 14:50:40;;;;;;;1.60;1.30;;;;;;;;;;7052066;28;20040;-75
2021/05/31 14:54:00;;;;;;;1.55;1.20;;;;;;;;;;7054610;28;20051;-77
2021/05/31 14:57:21;;;;;;;1.40;1.25;;;;;;;;;;7050086;28;20122;-75
2021/05/31 15:00:41;;;;;;;1.73;1.50;;;;;;;;;;7044785;28;20047;-75
2021/05/31 15:04:02;;;;;;;1.38;1.27;;;;;;;;;;7037985;28;20054;-75
2021/05/31 15:07:23;;;;;;;5.00;1.75;;;;;;;;;;7052600;28;20043;-75
2021/05/31 15:10:43;;;;;;;1.45;1.35;;;;;;;;;;7039545;28;20056;-75
2021/05/31 15:14:03;;;;;;;1.52;1.30;;;;;;;;;;7045981;28;20056;-75
2021/05/31 15:17:24;;;;;;;2.03;1.27;;;;;;;;;;7026070;28;20051;-75
2021/05/31 15:20:44;;;;;;;1.27;1.20;;;;;;;;;;7023072;28;20383;-75
2021/05/31 15:24:05;;;;;;;1.30;1.20;;;;;;;;;;7042386;28;20084;-76
2021/05/31 15:27:26;;;;;;;1.70;1.30;;;;;;;;;;7044277;28;20056;-75
2021/05/31 15:30:46;;;;;;;1.58;1.10;;;;;;;;;;7043699;28;20082;-74
2021/05/31 15:34:07;;;;;;;1.20;1.10;;;;;;;;;;7031695;28;20131;-75
2021/05/31 15:37:27;;;;;;;1.63;1.20;;;;;;;;;;7054160;28;20120;-73
2021/05/31 15:40:49;;;;;;;1.40;1.30;;;;;;;;;;7053529;28;20047;-74
2021/05/31 15:44:10;;;;;;;3.30;1.50;;;;;;;;;;7054576;28;20098;-74
2021/05/31 15:47:30;;;;;;;1.85;1.30;;;;;;;;;;7053702;28;20088;-75
2021/05/31 15:50:51;;;;;;;1.20;1.10;;;;;;;;;;7053847;28;20431;-75
2021/05/31 15:54:11;;;;;;;2.15;1.45;;;;;;;;;;7053466;28;20071;-75
2021/05/31 15:57:32;;;;;;;3.13;1.10;;;;;;;;;;7051390;28;20492;-74
2021/05/31 16:00:54;;;;;;;2.45;1.40;;;;;;;;;;7051535;28;20074;-75
2021/05/31 16:04:15;;;;;;;1.65;1.20;;;;;;;;;;7044617;28;20485;-74
2021/05/31 16:07:35;;;;;;;1.63;1.40;;;;;;;;;;7040532;28;20075;-75
2021/05/31 16:10:56;;;;;;;1.33;1.17;;;;;;;;;;7044165;28;20051;-75
2021/05/31 16:14:16;;;;;;;3.20;1.40;;;;;;;;;;7047390;28;20516;-74
2021/05/31 16:17:36;;;;;;;1.25;1.15;;;;;;;;;;7038649;28;20401;-74
2021/05/31 16:20:58;;;;;;;1.95;1.17;;;;;;;;;;7052810;28;20497;-75
2021/05/31 16:24:20;;;;;;;1.08;1.08;;;;;;;;;;7051977;28;20396;-74
2021/05/31 16:27:40;;;;;;;1.67;1.30;;;;;;;;;;7050880;28;20044;-74
2021/05/31 16:31:02;;;;;;;1.85;1.30;;;;;;;;;;7039768;28;20058;-76
2021/05/31 16:34:22;;;;;;;3.38;1.45;;;;;;;;;;7044885;28;20072;-75
2021/05/31 16:37:43;;;;;;;2.33;1.20;;;;;;;;;;7048522;28;20051;-75
2021/05/31 16:41:04;;;;;;;8.18;1.73;;;;;;;;;;7035681;28;20141;-75
2021/05/31 16:44:24;;;;;;;5.68;1.65;;;;;;;;;;7049542;28;20139;-74
2021/05/31 16:47:45;;;;;;;3.83;1.30;;;;;;;;;;7049646;28;20048;-74
2021/05/31 16:51:14;;;;;;;1.55;1.10;;;;;;;;;;7051426;28;20396;-74
2021/05/31 16:54:35;;;;;;;2.30;1.30;;;;;;;;;;7051324;28;20035;-75
2021/05/31 16:57:56;;;;;;;2.17;1.52;;;;;;;;;;7043402;28;20122;-74
2021/05/31 17:01:16;;;;;;;1.60;1.50;;;;;;;;;;7051285;28;20051;-74
2021/05/31 17:04:36;;;;;;;4.05;1.60;;;;;;;;;;7058931;28;20506;-75
2021/05/31 17:08:02;;;;;;;2.05;1.17;;;;;;;;;;7052829;28;20077;-75
2021/05/31 17:21:46;;;;;;;3.38;1.15;;;;;;;;;;7039158;28;20055;-75
2021/05/31 17:25:07;;;;;;;1.30;1.20;;;;;;;;;;7049993;28;20049;-75
2021/05/31 17:28:28;;;;;;;5.10;1.23;;;;;;;;;;7050634;28;20400;-74
2021/05/31 17:35:14;;;;;;;2.25;1.38;;;;;;;;;;7049802;28;20058;-74
2021/05/31 17:38:34;;;;;;;3.75;1.30;;;;;;;;;;7044457;28;20416;-75
2021/05/31 17:41:56;;;;;;;1.83;1.23;;;;;;;;;;7039277;28;20566;-74
2021/05/31 17:45:20;;;;;;;1.15;1.10;;;;;;;;;;7030675;28;20647;-75
2021/05/31 17:48:40;;;;;;;1.60;1.50;;;;;;;;;;7050657;28;20047;-74
2021/05/31 17:52:04;;;;;;;2.85;1.10;;;;;;;;;;7050368;28;20397;-75
2021/05/31 17:55:24;;;;;;;1.65;1.35;;;;;;;;;;7044545;28;20049;-76
2021/05/31 17:58:45;;;;;;;4.07;1.38;;;;;;;;;;7048317;28;20043;-75
2021/05/31 18:02:07;;;;;;;2.42;1.10;;;;;;;;;;7036927;28;20457;-74
2021/05/31 18:05:30;;;;;;;5.90;1.08;;;;;;;;;;7047456;28;20040;-76
2021/05/31 18:08:51;;;;;;;2.38;1.20;;;;;;;;;;7048213;28;20050;-75
2021/05/31 18:12:11;;;;;;;1.42;1.33;;;;;;;;;;7048185;28;20043;-74
2021/05/31 18:15:32;;;;;;;2.78;1.38;;;;;;;;;;7040897;28;20083;-74
2021/05/31 18:18:53;;;;;;;2.28;1.30;;;;;;;;;;7030507;28;20046;-75
2021/05/31 18:22:13;;;;;;;3.35;1.52;;;;;;;;;;7045930;28;20044;-75
2021/05/31 18:25:33;;;;;;;2.42;1.80;;;;;;;;;;7045567;28;20134;-75
2021/05/31 18:28:54;;;;;;;2.58;1.92;;;;;;;;;;7048293;28;20080;-75
2021/05/31 18:32:14;;;;;;;5.95;2.13;;;;;;;;;;7050519;28;20047;-74
2021/05/31 18:35:47;;;;;;;6.97;2.10;;;;;;;;;;7048785;28;20067;-75
2021/05/31 18:39:09;;;;;;;4.10;2.63;;;;;;;;;;7035541;28;20085;-75
2021/05/31 18:42:29;;;;;;;4.15;2.42;;;;;;;;;;7048673;28;20494;-75
2021/05/31 18:45:50;;;;;;;4.15;2.55;;;;;;;;;;7045914;28;20481;-74
2021/05/31 18:49:11;;;;;;;5.25;2.40;;;;;;;;;;7046450;28;20131;-75
2021/05/31 18:52:32;;;;;;;3.78;2.53;;;;;;;;;;7047192;28;20617;-75
2021/05/31 18:55:53;;;;;;;4.32;3.22;;;;;;;;;;7045915;28;20039;-75
2021/05/31 18:59:13;;;;;;;4.25;3.13;;;;;;;;;;7048553;28;20401;-75
2021/05/31 19:02:34;;;;;;;5.03;2.92;;;;;;;;;;7048027;28;20127;-74
2021/05/31 19:05:55;;;;;;;5.07;3.17;;;;;;;;;;7046409;28;20047;-76
2021/05/31 19:09:15;;;;;;;4.95;2.88;;;;;;;;;;7048904;28;20132;-75
2021/05/31 19:12:36;;;;;;;5.07;3.35;;;;;;;;;;7047996;28;20052;-75
2021/05/31 19:15:58;;;;;;;5.93;3.50;;;;;;;;;;7048542;28;20085;-76
2021/05/31 19:19:18;;;;;;;4.05;2.97;;;;;;;;;;7049766;28;20086;-75
2021/05/31 19:22:39;;;;;;;7.07;4.20;;;;;;;;;;7049232;28;20036;-74
2021/05/31 19:25:59;;;;;;;5.57;3.90;;;;;;;;;;7049207;28;20203;-75
2021/05/31 19:29:20;;;;;;;8.98;4.00;;;;;;;;;;7033731;28;20540;-75
2021/05/31 19:32:40;;;;;;;10.80;4.18;;;;;;;;;;7049422;28;20100;-75
2021/05/31 19:36:00;;;;;;;6.90;3.45;;;;;;;;;;7030128;28;20477;-75
2021/05/31 19:39:22;;;;;;;6.47;4.03;;;;;;;;;;7045530;28;20119;-75
2021/05/31 19:42:44;;;;;;;9.48;3.72;;;;;;;;;;7051943;28;20048;-75
2021/05/31 19:46:05;;;;;;;7.43;3.17;;;;;;;;;;7040930;28;20055;-75
2021/05/31 19:49:25;;;;;;;4.65;3.40;;;;;;;;;;7028728;28;20041;-75
2021/05/31 19:52:46;;;;;;;4.53;3.28;;;;;;;;;;7049289;28;20039;-75
2021/05/31 19:56:17;;;;;;;10.13;4.03;;;;;;;;;;7043662;28;20055;-75
2021/05/31 19:59:49;;;;;;;5.07;3.78;;;;;;;;;;7050382;28;20054;-76
2021/05/31 20:03:10;;;;;;;7.68;3.45;;;;;;;;;;7029324;28;20052;-75
2021/05/31 20:06:31;;;;;;;5.22;3.53;;;;;;;;;;7048556;28;20070;-75
2021/05/31 20:09:53;;;;;;;6.15;3.63;;;;;;;;;;7051956;28;20493;-75
2021/05/31 20:13:13;;;;;;;5.85;3.45;;;;;;;;;;7038605;28;20134;-75
2021/05/31 20:16:34;;;;;;;6.05;3.40;;;;;;;;;;7053040;28;20048;-75
2021/05/31 20:19:55;;;;;;;8.07;3.58;;;;;;;;;;7053492;28;20440;-76
2021/05/31 20:23:15;;;;;;;4.85;3.47;;;;;;;;;;7054046;28;20435;-76
2021/05/31 20:26:35;;;;;;;6.10;3.33;;;;;;;;;;7053057;28;20501;-75
2021/05/31 20:29:56;;;;;;;10.75;3.70;;;;;;;;;;7045042;28;20062;-75
2021/05/31 20:33:17;;;;;;;6.90;3.42;;;;;;;;;;7035503;28;20047;-75
2021/05/31 20:36:38;;;;;;;5.90;3.35;;;;;;;;;;7052115;28;20382;-75
2021/05/31 20:39:59;;;;;;;7.25;3.65;;;;;;;;;;7045077;28;20048;-75
2021/05/31 20:43:19;;;;;;;5.45;3.47;;;;;;;;;;7046921;28;20074;-75